Terminal Aerodrome Forecast
Issued by NWS

Home | Current Version | Previous Version | Text Only | Print | Product List | Glossary On
Versions: 1 2 3 4 5 6 7 8 9 10 11 12 13 14 15 16 17 18 19 20 21 22 23 24 25 26 27 28 29 30 31 32 33 34 35 36 37 38 39 40 41 42 43
000
FTUS43 KDTX 031723
TAFYIP
TAF
KYIP 031723Z 0318/0418 15012KT 2SM -FZRA BR BKN010 OVC025
     FM032000 20013KT 3SM -RA BR OVC008
     FM032200 22013KT 2SM -DZ BR OVC005
     FM040100 24013KT 6SM BR OVC015
     FM040500 28010KT P6SM BKN025 BKN100
     FM040900 28008KT P6SM SCT025 BKN100
     FM041400 27010KT P6SM BKN025=

USA.gov is the U.S. government's official web portal to all federal, state and local government web resources and services.